KBLH/BLH METAR and TAF weather

Enter ICAO airport designator
Station Type Date Time Source
KBLH METAR 2024/04/23 03:52 UTC NOAA

KBLH 230352Z AUTO 20011KT 10SM CLR 31/01 A2971 RMK AO2 SLP052 T03060006


Station Type Date Time Source
KBLH Decoded METAR 2024/04/23 03:52 UTC NOAA

BLYTHE AIRPORT, CA, United States (KBLH) 33-37N 114-43W 119M
Apr 22, 2024 - 11:52 PM EDT / 2024.04.23 0352 UTC
Wind: from the SSW (200 degrees) at 13 MPH (11 KT):0
Visibility: 10 mile(s):0
Sky conditions: clear
Temperature: 87.1 F (30.6 C)
Dew Point: 33.1 F (0.6 C)
Relative Humidity: 14%
Pressure (altimeter): 29.71 in. Hg (1006 hPa)
ob: KBLH 230352Z AUTO 20011KT 10SM CLR 31/01 A2971 RMK AO2 SLP052 T03060006
cycle: 4

Station Type Date Time Source
KBLH TAF 2024/04/22 18:22 UTC NOAA